Time;durP1;ratioP1;P1;durP2;ratioP2;P2;SDS_P1;SDS_P2;PMS_P1;PMS_P2;Temp;Humidity;BMP_temperature;BMP_pressure;BME280_temperature;BME280_humidity;BME280_pressure;Samples;Min_cycle;Max_cycle;Signal;HPM_P1;HPM_P2
2023/07/29 00:01:35;;;;;;;4.55;2.78;;;;;;;18.15;100.00;99866.59;5189700;28;20185;-72
2023/07/29 00:04:06;;;;;;;6.30;3.00;;;;;;;18.08;100.00;99867.19;5170756;28;20034;-72
2023/07/29 00:06:36;;;;;;;3.90;2.80;;;;;;;18.11;100.00;99872.25;5187784;28;20021;-72
2023/07/29 00:09:06;;;;;;;6.20;2.40;;;;;;;18.08;100.00;99856.59;5187507;28;20828;-73
2023/07/29 00:11:36;;;;;;;2.45;1.92;;;;;;;18.22;100.00;99859.03;5186752;28;20051;-72
2023/07/29 00:14:07;;;;;;;3.65;1.80;;;;;;;18.34;100.00;99852.81;5187022;28;21294;-73
2023/07/29 00:16:37;;;;;;;2.95;1.70;;;;;;;18.47;100.00;99854.38;5187564;28;20018;-72
2023/07/29 00:19:08;;;;;;;3.85;1.25;;;;;;;18.54;100.00;99857.38;5187510;28;20037;-73
2023/07/29 00:21:38;;;;;;;5.65;1.70;;;;;;;18.63;100.00;99856.63;5176828;28;20108;-73
2023/07/29 00:24:08;;;;;;;1.95;1.45;;;;;;;18.69;100.00;99864.09;5191175;28;20109;-73
2023/07/29 00:26:39;;;;;;;4.07;1.45;;;;;;;18.66;100.00;99867.81;5195283;28;20040;-73
2023/07/29 00:29:09;;;;;;;2.05;1.40;;;;;;;18.73;100.00;99868.19;5191593;28;20034;-73
2023/07/29 00:31:39;;;;;;;2.63;1.55;;;;;;;18.73;100.00;99867.22;5193872;28;20017;-72
2023/07/29 00:34:09;;;;;;;2.30;1.30;;;;;;;18.73;100.00;99859.28;5193455;28;20136;-73
2023/07/29 00:36:40;;;;;;;1.80;1.40;;;;;;;18.77;100.00;99865.16;5176659;28;20284;-73
2023/07/29 00:39:10;;;;;;;3.17;1.40;;;;;;;18.81;100.00;99862.16;5189705;28;20440;-73
2023/07/29 00:41:40;;;;;;;1.85;1.30;;;;;;;18.76;100.00;99859.03;5191831;28;20078;-73
2023/07/29 00:44:11;;;;;;;3.78;1.30;;;;;;;18.73;100.00;99862.88;5190908;28;20236;-73
2023/07/29 00:46:41;;;;;;;3.33;1.38;;;;;;;18.81;100.00;99864.81;5192191;28;20028;-73
2023/07/29 00:49:12;;;;;;;2.45;1.40;;;;;;;18.85;100.00;99865.38;5189951;28;20150;-73
2023/07/29 00:51:42;;;;;;;1.98;1.50;;;;;;;18.89;100.00;99869.47;5190000;28;20116;-73
2023/07/29 00:54:13;;;;;;;1.90;1.20;;;;;;;18.93;100.00;99861.16;5189677;28;20028;-73
2023/07/29 00:56:43;;;;;;;2.33;1.67;;;;;;;19.03;100.00;99862.09;5180585;28;20048;-73
2023/07/29 00:59:14;;;;;;;1.40;1.20;;;;;;;19.03;100.00;99866.53;5194408;28;20018;-73
2023/07/29 01:01:44;;;;;;;2.55;1.10;;;;;;;19.05;100.00;99868.13;5189110;28;20022;-72
2023/07/29 01:04:14;;;;;;;2.40;1.27;;;;;;;19.03;100.00;99872.69;5188015;28;20036;-71
2023/07/29 01:06:56;;;;;;;3.73;1.50;;;;;;;19.02;100.00;99871.00;5191052;28;20026;-73
2023/07/29 01:09:52;;;;;;;1.77;1.10;;;;;;;19.08;100.00;99865.22;5170799;28;20284;-73
2023/07/29 01:12:28;;;;;;;1.83;1.10;;;;;;;19.03;100.00;99867.41;5194545;28;20029;-73
2023/07/29 01:15:24;;;;;;;1.45;1.08;;;;;;;18.91;100.00;99868.38;5167794;28;20025;-73
2023/07/29 01:17:58;;;;;;;1.45;1.30;;;;;;;18.92;100.00;99869.25;5187684;28;20029;-73
2023/07/29 01:20:33;;;;;;;2.47;1.17;;;;;;;18.88;100.00;99857.19;5189228;28;20022;-73
2023/07/29 01:23:03;;;;;;;1.92;1.02;;;;;;;18.87;100.00;99850.22;5185824;28;20049;-73
2023/07/29 01:25:33;;;;;;;1.10;1.00;;;;;;;18.82;100.00;99853.25;5190466;28;20065;-73
2023/07/29 01:28:04;;;;;;;2.00;1.20;;;;;;;18.74;100.00;99855.66;5188303;28;20647;-73
2023/07/29 01:30:40;;;;;;;2.17;1.08;;;;;;;18.76;100.00;99853.72;5171599;28;20042;-73
2023/07/29 01:33:35;;;;;;;1.83;1.10;;;;;;;18.71;100.00;99851.56;5168477;28;20360;-72
2023/07/29 01:36:17;;;;;;;1.23;0.98;;;;;;;18.59;100.00;99847.25;5188201;28;20420;-73
2023/07/29 01:38:49;;;;;;;2.47;1.10;;;;;;;18.51;100.00;99847.88;5189351;28;20028;-73
2023/07/29 01:41:21;;;;;;;1.80;1.10;;;;;;;18.41;100.00;99841.63;5174731;28;20048;-73
2023/07/29 01:43:52;;;;;;;1.80;0.95;;;;;;;18.41;100.00;99835.47;5171998;28;20076;-73
2023/07/29 01:46:23;;;;;;;3.17;0.95;;;;;;;18.30;100.00;99832.84;5190954;28;20099;-73
2023/07/29 01:48:53;;;;;;;3.72;1.00;;;;;;;18.32;100.00;99834.41;5183760;28;20030;-73
2023/07/29 01:51:23;;;;;;;2.10;1.10;;;;;;;18.24;100.00;99826.22;5189212;28;20272;-73
2023/07/29 01:53:55;;;;;;;2.05;1.10;;;;;;;18.06;100.00;99818.88;5187734;28;20030;-73
2023/07/29 01:56:25;;;;;;;1.20;0.93;;;;;;;17.99;100.00;99822.97;5190586;28;20083;-73
2023/07/29 01:58:56;;;;;;;2.42;1.00;;;;;;;17.91;100.00;99820.06;5186864;28;20429;-73
2023/07/29 02:01:26;;;;;;;1.70;1.23;;;;;;;17.92;100.00;99827.03;5171290;28;20029;-72
2023/07/29 02:03:56;;;;;;;1.65;1.10;;;;;;;17.84;100.00;99824.97;5188384;28;20025;-73
2023/07/29 02:06:27;;;;;;;2.10;1.30;;;;;;;17.85;100.00;99828.47;5191684;28;20029;-72
2023/07/29 02:08:57;;;;;;;1.98;1.15;;;;;;;17.93;100.00;99823.41;5168265;28;20224;-73
2023/07/29 02:11:27;;;;;;;5.63;1.60;;;;;;;17.80;100.00;99820.88;5189142;28;20025;-73
2023/07/29 02:13:58;;;;;;;2.25;1.30;;;;;;;17.72;100.00;99819.78;5189276;28;20029;-72
2023/07/29 02:16:28;;;;;;;1.70;1.20;;;;;;;17.66;100.00;99825.56;5171265;28;20387;-73
2023/07/29 02:18:59;;;;;;;4.38;1.30;;;;;;;17.63;100.00;99829.25;5188985;28;20017;-73
2023/07/29 02:21:29;;;;;;;1.38;0.95;;;;;;;17.75;100.00;99824.84;5188103;28;20091;-73
2023/07/29 02:23:59;;;;;;;1.50;1.08;;;;;;;17.82;100.00;99828.72;5191177;28;20435;-73
2023/07/29 02:26:30;;;;;;;1.83;1.20;;;;;;;17.86;100.00;99832.78;5188166;28;20049;-72
2023/07/29 02:29:00;;;;;;;1.40;1.10;;;;;;;17.85;100.00;99825.81;5189513;28;20513;-72
2023/07/29 02:31:30;;;;;;;1.42;1.23;;;;;;;17.85;100.00;99836.41;5187896;28;20041;-73
2023/07/29 02:34:01;;;;;;;1.45;1.13;;;;;;;17.88;100.00;99836.16;5182839;28;20029;-72
2023/07/29 02:36:31;;;;;;;1.63;1.20;;;;;;;17.86;100.00;99830.97;5167921;28;20029;-71
2023/07/29 02:39:01;;;;;;;1.40;1.20;;;;;;;17.86;100.00;99832.78;5189259;28;20045;-73
2023/07/29 02:41:32;;;;;;;1.25;0.90;;;;;;;17.88;100.00;99830.88;5191451;28;20298;-73
2023/07/29 02:44:03;;;;;;;3.90;1.17;;;;;;;17.88;100.00;99830.88;5186272;28;20259;-72
2023/07/29 02:46:33;;;;;;;1.00;0.90;;;;;;;17.83;100.00;99833.88;5170575;28;20032;-73
2023/07/29 02:49:04;;;;;;;2.28;1.30;;;;;;;17.82;100.00;99831.34;5187579;28;20045;-73
2023/07/29 02:51:34;;;;;;;4.03;1.20;;;;;;;17.79;100.00;99831.59;5186235;28;20037;-73
2023/07/29 02:54:04;;;;;;;1.42;1.17;;;;;;;17.77;100.00;99839.63;5163071;28;20037;-73
2023/07/29 02:56:35;;;;;;;1.65;1.15;;;;;;;17.71;100.00;99832.19;5182021;28;20025;-72
2023/07/29 02:59:05;;;;;;;2.17;1.20;;;;;;;17.75;100.00;99830.13;5167216;28;20026;-73
2023/07/29 03:01:36;;;;;;;2.13;1.00;;;;;;;17.75;100.00;99830.97;5187215;28;20041;-73
2023/07/29 03:04:06;;;;;;;1.88;1.23;;;;;;;17.81;100.00;99825.22;5168986;28;20029;-73
2023/07/29 03:06:36;;;;;;;1.38;1.00;;;;;;;17.85;100.00;99828.47;5169850;28;20488;-73
2023/07/29 03:09:06;;;;;;;3.17;1.25;;;;;;;17.79;100.00;99824.50;5189473;28;20698;-73
2023/07/29 03:11:37;;;;;;;3.47;1.30;;;;;;;17.75;100.00;99832.75;5167380;28;20028;-72
2023/07/29 03:14:07;;;;;;;1.98;1.20;;;;;;;17.71;100.00;99828.69;5186380;28;20380;-73
2023/07/29 03:16:37;;;;;;;2.28;1.10;;;;;;;17.65;100.00;99824.69;5186984;28;20032;-71
2023/07/29 03:19:08;;;;;;;3.58;1.17;;;;;;;17.63;100.00;99831.06;5184334;28;20486;-73
2023/07/29 03:21:38;;;;;;;1.42;1.05;;;;;;;17.69;100.00;99830.59;5187030;28;20024;-70
2023/07/29 03:24:08;;;;;;;1.60;1.10;;;;;;;17.68;100.00;99834.19;5186706;28;20110;-72
2023/07/29 03:26:39;;;;;;;2.47;1.10;;;;;;;17.65;100.00;99832.63;5170931;28;20037;-72
2023/07/29 03:29:09;;;;;;;1.58;1.00;;;;;;;17.66;100.00;99829.03;5157103;28;20029;-72
2023/07/29 03:31:39;;;;;;;4.25;1.20;;;;;;;17.66;100.00;99830.84;5193866;28;20029;-72
2023/07/29 03:34:11;;;;;;;1.90;1.05;;;;;;;17.70;100.00;99827.84;5189976;28;20124;-72
2023/07/29 03:36:41;;;;;;;1.73;1.10;;;;;;;17.68;100.00;99826.28;5186974;28;20018;-72
2023/07/29 03:39:12;;;;;;;2.05;0.98;;;;;;;17.69;100.00;99830.59;5170164;28;20029;-73
2023/07/29 03:41:42;;;;;;;3.33;1.00;;;;;;;17.71;100.00;99823.38;5193314;28;20028;-72
2023/07/29 03:44:12;;;;;;;1.20;1.08;;;;;;;17.80;100.00;99828.81;5186452;28;20276;-73
2023/07/29 03:46:43;;;;;;;4.47;1.40;;;;;;;17.84;100.00;99821.50;5189608;28;20033;-73
2023/07/29 03:49:13;;;;;;;3.95;1.08;;;;;;;17.87;100.00;99814.19;5185849;28;20116;-73
2023/07/29 03:51:43;;;;;;;2.78;1.10;;;;;;;17.89;100.00;99800.81;5189830;28;20022;-73
2023/07/29 03:54:14;;;;;;;1.15;1.00;;;;;;;17.92;100.00;99800.59;5171196;28;20088;-72
2023/07/29 03:56:44;;;;;;;3.42;1.00;;;;;;;17.93;100.00;99807.56;5179428;28;20026;-73
2023/07/29 03:59:14;;;;;;;1.55;0.90;;;;;;;17.94;100.00;99801.31;5174544;28;20391;-73
2023/07/29 04:01:45;;;;;;;1.27;0.90;;;;;;;17.90;100.00;99799.88;5191899;28;20025;-72
2023/07/29 04:04:15;;;;;;;1.48;1.02;;;;;;;17.96;100.00;99800.22;5194884;28;20026;-73
2023/07/29 04:06:45;;;;;;;2.55;1.10;;;;;;;17.96;100.00;99796.72;5191629;28;20124;-72
2023/07/29 04:09:16;;;;;;;1.20;1.00;;;;;;;18.02;100.00;99791.81;5192836;28;20406;-72
2023/07/29 04:11:46;;;;;;;1.17;1.00;;;;;;;18.14;100.00;99800.63;5175099;28;20455;-73
2023/07/29 04:14:16;;;;;;;2.30;1.17;;;;;;;18.25;100.00;99803.22;5191584;28;20022;-71
2023/07/29 04:16:49;;;;;;;1.63;1.08;;;;;;;18.35;100.00;99810.34;5175794;28;20029;-73
2023/07/29 04:19:19;;;;;;;1.25;1.02;;;;;;;18.38;100.00;99804.81;5175779;28;20018;-73
2023/07/29 04:21:50;;;;;;;1.92;0.95;;;;;;;18.34;100.00;99803.38;5191885;28;20033;-73
2023/07/29 04:24:23;;;;;;;1.35;0.80;;;;;;;18.47;100.00;99803.22;5193621;28;20032;-73
2023/07/29 04:26:53;;;;;;;1.55;0.98;;;;;;;18.52;100.00;99801.09;5194468;28;20403;-73
2023/07/29 04:29:23;;;;;;;4.60;1.20;;;;;;;18.57;100.00;99796.25;5177762;28;20033;-74
2023/07/29 04:31:53;;;;;;;3.25;1.15;;;;;;;18.54;100.00;99793.84;5176855;28;20029;-73
2023/07/29 04:34:24;;;;;;;1.63;1.20;;;;;;;18.57;100.00;99794.47;5195092;28;20021;-73
2023/07/29 04:36:54;;;;;;;2.20;1.00;;;;;;;18.69;100.00;99795.28;5193987;28;20034;-72
2023/07/29 04:39:25;;;;;;;2.85;1.02;;;;;;;18.84;100.00;99794.84;5195796;28;20033;-73
2023/07/29 04:41:57;;;;;;;1.63;1.20;;;;;;;18.95;100.00;99798.31;5196750;28;20086;-73
2023/07/29 04:44:27;;;;;;;1.55;0.98;;;;;;;19.06;100.00;99797.41;5190522;28;20026;-73
2023/07/29 04:46:57;;;;;;;1.40;0.98;;;;;;;19.41;100.00;99782.97;5196102;28;20355;-71
2023/07/29 04:49:49;;;;;;;1.58;1.08;;;;;;;20.02;100.00;99765.31;5198716;28;20494;-76
2023/07/29 04:52:19;;;;;;;0.93;0.80;;;;;;;20.48;100.00;99768.28;5193537;28;20414;-74
2023/07/29 04:54:50;;;;;;;1.50;0.80;;;;;;;21.42;100.00;99765.69;5192279;28;20033;-73
2023/07/29 04:57:21;;;;;;;0.95;0.80;;;;;;;22.02;100.00;99764.44;5174155;28;20036;-73
2023/07/29 04:59:51;;;;;;;1.40;0.70;;;;;;;22.06;100.00;99773.84;5174812;28;20026;-74
2023/07/29 05:02:21;;;;;;;1.00;0.90;;;;;;;21.82;100.00;99770.81;5190831;28;20442;-74
2023/07/29 05:04:52;;;;;;;2.35;0.68;;;;;;;21.49;100.00;99772.13;5191551;28;20033;-73
2023/07/29 05:07:22;;;;;;;1.25;0.73;;;;;;;21.16;100.00;99775.25;5193737;28;20033;-74
2023/07/29 05:09:52;;;;;;;1.45;0.90;;;;;;;21.31;100.00;99770.31;5173636;28;20450;-73
2023/07/29 05:12:23;;;;;;;1.10;0.80;;;;;;;21.08;100.00;99767.09;5192706;28;20089;-74
2023/07/29 05:14:53;;;;;;;0.82;0.63;;;;;;;21.12;100.00;99768.53;5197459;28;20104;-73
2023/07/29 05:17:24;;;;;;;0.90;0.63;;;;;;;21.01;100.00;99767.81;5194483;28;20018;-73
2023/07/29 05:19:54;;;;;;;1.05;0.80;;;;;;;20.81;100.00;99776.72;5193744;28;20022;-73
2023/07/29 05:22:24;;;;;;;1.40;0.80;;;;;;;20.58;100.00;99777.94;5196370;28;20030;-73
2023/07/29 05:24:55;;;;;;;0.77;0.70;;;;;;;20.39;100.00;99777.91;5191004;28;20021;-73
2023/07/29 05:27:25;;;;;;;0.80;0.70;;;;;;;20.23;100.00;99772.25;5190904;28;20030;-73
2023/07/29 05:29:55;;;;;;;1.70;0.88;;;;;;;20.12;100.00;99775.00;5190844;28;20059;-73
2023/07/29 05:32:26;;;;;;;2.05;0.90;;;;;;;20.02;100.00;99765.31;5193118;28;20037;-73
2023/07/29 05:34:56;;;;;;;1.48;0.93;;;;;;;20.06;100.00;99772.91;5188386;28;20029;-72
2023/07/29 05:37:26;;;;;;;1.25;0.82;;;;;;;20.07;100.00;99771.06;5193855;28;20056;-73
2023/07/29 05:39:57;;;;;;;1.10;0.93;;;;;;;20.08;100.00;99762.13;5191464;28;20025;-73
2023/07/29 05:42:27;;;;;;;1.50;1.00;;;;;;;20.10;100.00;99763.69;5192522;28;20061;-73
2023/07/29 05:44:57;;;;;;;0.98;0.80;;;;;;;20.21;100.00;99760.94;5192216;28;20026;-73
2023/07/29 05:47:27;;;;;;;1.30;1.08;;;;;;;20.22;100.00;99759.97;5190222;28;20036;-73
2023/07/29 05:49:58;;;;;;;3.75;1.20;;;;;;;20.27;100.00;99764.88;5191141;28;20076;-74
2023/07/29 05:52:28;;;;;;;2.08;1.20;;;;;;;20.26;100.00;99771.16;5192636;28;20032;-73
2023/07/29 05:54:58;;;;;;;1.48;1.00;;;;;;;20.24;100.00;99773.09;5191412;28;20029;-74
2023/07/29 05:57:29;;;;;;;2.05;1.20;;;;;;;20.20;100.00;99767.22;5174515;28;20112;-74
2023/07/29 05:59:59;;;;;;;0.77;0.70;;;;;;;20.17;100.00;99767.50;5188982;28;20064;-73
2023/07/29 06:02:29;;;;;;;1.42;0.90;;;;;;;20.17;100.00;99767.50;5191909;28;20073;-74
2023/07/29 06:05:01;;;;;;;1.70;0.98;;;;;;;20.11;100.00;99765.38;5190295;28;20051;-73
2023/07/29 06:07:33;;;;;;;1.60;1.05;;;;;;;20.03;100.00;99762.56;5192278;28;20095;-73
2023/07/29 06:10:04;;;;;;;2.60;1.33;;;;;;;19.94;100.00;99765.13;5188702;28;20022;-73
2023/07/29 06:12:34;;;;;;;6.13;1.40;;;;;;;19.84;100.00;99764.22;5173158;28;20071;-73
2023/07/29 06:15:05;;;;;;;3.60;1.50;;;;;;;19.78;100.00;99762.94;5170330;28;20548;-72
2023/07/29 06:17:35;;;;;;;2.35;1.05;;;;;;;19.81;100.00;99765.31;5189453;28;20598;-73
2023/07/29 06:20:06;;;;;;;2.60;1.17;;;;;;;19.68;100.00;99767.38;5190358;28;20879;-72
2023/07/29 06:22:36;;;;;;;2.28;1.25;;;;;;;19.68;100.00;99769.16;5176351;28;20021;-73
2023/07/29 06:25:07;;;;;;;2.72;1.30;;;;;;;19.67;100.00;99765.69;5188351;28;20754;-72
2023/07/29 06:27:38;;;;;;;6.18;1.30;;;;;;;19.62;100.00;99770.53;5171692;28;20033;-74
2023/07/29 06:30:08;;;;;;;5.25;1.65;;;;;;;19.53;100.00;99765.16;5166616;28;20021;-74
2023/07/29 06:32:39;;;;;;;2.42;1.20;;;;;;;19.49;100.00;99764.63;5187046;28;20022;-74
2023/07/29 06:35:09;;;;;;;4.05;1.73;;;;;;;19.48;100.00;99773.50;5184663;28;20526;-74
2023/07/29 06:37:39;;;;;;;3.67;1.35;;;;;;;19.46;100.00;99775.44;5187899;28;20115;-73
2023/07/29 06:40:10;;;;;;;3.53;1.42;;;;;;;19.46;100.00;99782.56;5187519;28;20037;-74
2023/07/29 06:42:40;;;;;;;3.33;1.70;;;;;;;19.45;100.00;99787.03;5172245;28;20044;-72
2023/07/29 06:45:11;;;;;;;3.40;1.55;;;;;;;19.39;100.00;99778.75;5190936;28;20037;-74
2023/07/29 06:47:41;;;;;;;5.43;1.60;;;;;;;19.41;100.00;99782.97;5193212;28;20025;-73
2023/07/29 06:50:12;;;;;;;3.67;1.65;;;;;;;19.31;100.00;99782.03;5191808;28;20030;-74
2023/07/29 06:52:42;;;;;;;3.78;1.50;;;;;;;19.30;100.00;99776.88;5172716;28;20025;-75
2023/07/29 06:55:13;;;;;;;4.53;1.38;;;;;;;19.37;100.00;99770.94;5190690;28;20449;-73
2023/07/29 06:57:43;;;;;;;2.97;1.65;;;;;;;19.30;100.00;99769.75;5190577;28;20028;-74
2023/07/29 07:00:13;;;;;;;4.13;1.40;;;;;;;19.30;100.00;99769.75;5194232;28;20021;-73
2023/07/29 07:02:44;;;;;;;3.17;1.30;;;;;;;19.26;100.00;99757.75;5185534;28;20034;-74
2023/07/29 07:05:15;;;;;;;4.95;1.45;;;;;;;19.35;100.00;99762.28;5190395;28;20083;-74
2023/07/29 07:07:45;;;;;;;2.17;1.25;;;;;;;19.28;100.00;99771.69;5185859;28;20037;-74
2023/07/29 07:12:55;;;;;;;3.95;1.60;;;;;;;19.28;100.00;99784.13;5208733;28;20049;-79
2023/07/29 07:15:26;;;;;;;5.15;1.90;;;;;;;19.25;100.00;99784.38;5205709;28;20036;-76
2023/07/29 07:17:56;;;;;;;4.20;1.35;;;;;;;19.27;100.00;99777.97;5205555;28;20033;-79
2023/07/29 07:20:26;;;;;;;6.97;1.53;;;;;;;19.33;100.00;99782.78;5209731;28;20048;-79
2023/07/29 07:22:57;;;;;;;3.47;1.90;;;;;;;19.36;100.00;99795.75;5193268;28;20349;-79
2023/07/29 07:25:27;;;;;;;2.20;1.43;;;;;;;19.44;100.00;99784.53;5188546;28;20368;-79
2023/07/29 07:27:57;;;;;;;2.60;1.40;;;;;;;19.56;100.00;99786.97;5189143;28;20287;-79
2023/07/29 07:30:27;;;;;;;2.50;1.20;;;;;;;19.69;100.00;99792.91;5190938;28;20535;-79
2023/07/29 07:32:58;;;;;;;4.60;1.25;;;;;;;19.92;100.00;99790.94;5187933;28;20322;-79
2023/07/29 07:35:28;;;;;;;2.00;1.20;;;;;;;20.10;100.00;99795.53;5184830;28;20045;-79
2023/07/29 07:38:01;;;;;;;1.97;1.10;;;;;;;20.16;100.00;99792.31;5190093;28;20141;-79
2023/07/29 07:40:32;;;;;;;2.10;1.00;;;;;;;20.51;100.00;99779.44;5187876;28;21815;-79
2023/07/29 07:43:02;;;;;;;2.20;0.98;;;;;;;20.74;100.00;99775.59;5187320;28;20029;-79
2023/07/29 07:45:32;;;;;;;2.55;0.90;;;;;;;20.58;100.00;99775.28;5189965;28;20495;-79
2023/07/29 07:48:03;;;;;;;1.10;0.70;;;;;;;20.96;100.00;99772.72;5190357;28;20057;-79
2023/07/29 07:50:33;;;;;;;0.82;0.60;;;;;;;20.95;100.00;99768.38;5192675;28;20057;-79
2023/07/29 07:53:03;;;;;;;2.63;0.90;;;;;;;21.15;100.00;99773.56;5193135;28;20103;-79
2023/07/29 07:55:34;;;;;;;1.50;1.00;;;;;;;20.93;100.00;99773.00;5185515;28;20352;-77
2023/07/29 07:58:04;;;;;;;2.20;0.80;;;;;;;21.06;100.00;99762.94;5185022;28;20569;-77
2023/07/29 08:00:34;;;;;;;3.38;0.93;;;;;;;21.26;100.00;99764.59;5187545;28;20475;-77
2023/07/29 08:03:05;;;;;;;3.00;0.93;;;;;;;21.41;100.00;99763.19;5190000;28;20030;-77
2023/07/29 08:05:35;;;;;;;1.02;0.77;;;;;;;21.39;100.00;99768.63;5183532;28;20351;-77
2023/07/29 08:08:05;;;;;;;1.20;0.53;;;;;;;21.22;100.00;99760.56;5191071;28;20051;-77
2023/07/29 08:10:35;;;;;;;1.00;0.68;;;;;;;21.27;100.00;99760.97;5192498;28;20284;-77
2023/07/29 08:13:06;;;;;;;1.10;0.50;;;;;;;21.31;100.00;99759.69;5209487;28;20028;-76
2023/07/29 08:15:36;;;;;;;1.80;0.50;;;;;;;21.17;100.00;99755.66;5205224;28;20283;-77
2023/07/29 08:18:07;;;;;;;3.90;0.40;;;;;;;21.08;100.00;99755.66;5206999;28;22825;-77
2023/07/29 08:20:37;;;;;;;1.25;0.50;;;;;;;21.19;100.00;99745.72;5205075;28;20288;-77
2023/07/29 08:23:07;;;;;;;1.27;0.50;;;;;;;21.37;100.00;99751.16;5209011;28;20048;-77
2023/07/29 08:25:37;;;;;;;0.43;0.38;;;;;;;21.52;100.00;99739.06;5209272;28;20044;-77
2023/07/29 08:28:08;;;;;;;1.43;0.50;;;;;;;21.97;100.00;99734.78;5214866;28;20028;-77
2023/07/29 08:30:38;;;;;;;1.43;0.40;;;;;;;21.96;100.00;99733.09;5215513;28;20315;-77
2023/07/29 08:33:08;;;;;;;0.33;0.30;;;;;;;22.09;100.00;99729.09;5213243;28;20279;-77
2023/07/29 08:35:38;;;;;;;0.43;0.30;;;;;;;22.17;100.00;99720.38;5209091;28;20279;-76
2023/07/29 08:38:09;;;;;;;0.70;0.40;;;;;;;22.22;100.00;99724.28;5209047;28;20281;-76
2023/07/29 08:40:48;;;;;;;0.97;0.40;;;;;;;22.11;100.00;99731.63;5207849;28;20502;-76
2023/07/29 08:43:20;;;;;;;1.38;0.50;;;;;;;22.84;100.00;99727.81;5208922;28;20260;-74
2023/07/29 08:45:51;;;;;;;0.65;0.20;;;;;;;23.60;100.00;99726.28;5210849;28;20036;-74
2023/07/29 08:48:31;;;;;;;8.40;0.32;;;;;;;23.64;100.00;99733.84;5208761;28;20025;-76
2023/07/29 08:51:03;;;;;;;0.20;0.20;;;;;;;23.66;100.00;99731.00;5210253;28;20041;-77
2023/07/29 08:53:35;;;;;;;1.65;0.50;;;;;;;23.34;100.00;99723.59;5215275;28;20163;-77
2023/07/29 08:56:06;;;;;;;1.60;0.30;;;;;;;23.24;100.00;99733.56;5213190;28;20412;-77
2023/07/29 08:58:38;;;;;;;2.45;0.50;;;;;;;23.09;100.00;99728.88;5212982;28;20442;-77
2023/07/29 09:01:08;;;;;;;0.98;0.40;;;;;;;22.92;100.00;99730.56;5214821;28;20135;-76
2023/07/29 09:03:39;;;;;;;0.60;0.30;;;;;;;22.44;100.00;99728.41;5212948;28;20116;-77
2023/07/29 09:06:09;;;;;;;1.10;0.38;;;;;;;22.53;100.00;99730.16;5210179;28;20454;-77
2023/07/29 09:08:39;;;;;;;0.95;0.40;;;;;;;22.45;100.00;99740.72;5214380;28;20704;-77
2023/07/29 09:11:12;;;;;;;0.30;0.30;;;;;;;22.46;100.00;99737.06;5211650;28;20410;-77
2023/07/29 09:13:43;;;;;;;1.20;0.40;;;;;;;22.45;100.00;99730.06;5210112;28;20112;-74
2023/07/29 09:16:14;;;;;;;0.77;0.30;;;;;;;22.55;100.00;99739.69;5206573;28;20151;-76
2023/07/29 09:18:47;;;;;;;0.85;0.30;;;;;;;22.56;100.00;99748.53;5211512;28;20021;-73
2023/07/29 09:21:23;;;;;;;1.67;0.40;;;;;;;22.51;100.00;99754.28;5212142;28;20071;-76
2023/07/29 09:23:54;;;;;;;1.55;0.35;;;;;;;22.21;100.00;99759.03;5200237;28;20506;-77
2023/07/29 09:26:26;;;;;;;0.75;0.45;;;;;;;21.91;100.00;99754.81;5211517;28;20021;-76
2023/07/29 09:28:58;;;;;;;0.55;0.40;;;;;;;21.81;100.00;99750.50;5204942;28;20017;-76
2023/07/29 09:31:29;;;;;;;0.43;0.38;;;;;;;21.69;100.00;99754.31;5212833;28;20045;-76
2023/07/29 09:34:01;;;;;;;0.98;0.60;;;;;;;21.86;100.00;99748.25;5214625;28;20465;-76
2023/07/29 09:36:33;;;;;;;1.15;0.52;;;;;;;21.84;100.00;99739.56;5208813;28;20036;-76
2023/07/29 09:39:03;;;;;;;1.98;0.50;;;;;;;21.86;100.00;99733.13;5212427;28;20136;-74
2023/07/29 09:41:34;;;;;;;3.28;0.65;;;;;;;21.64;100.00;99733.50;5211062;28;20124;-76
2023/07/29 09:44:05;;;;;;;1.50;0.43;;;;;;;21.69;100.00;99719.75;5210960;28;20068;-76
2023/07/29 09:46:37;;;;;;;1.30;0.52;;;;;;;21.74;100.00;99714.84;5211495;28;20272;-76
2023/07/29 09:49:07;;;;;;;1.23;0.60;;;;;;;21.82;100.00;99709.63;5208841;28;20308;-77
2023/07/29 09:51:39;;;;;;;2.20;0.70;;;;;;;21.93;100.00;99712.09;5212159;28;20501;-77
2023/07/29 09:54:12;;;;;;;0.95;0.60;;;;;;;21.92;100.00;99732.53;5218157;28;20060;-76
2023/07/29 09:56:44;;;;;;;2.70;0.70;;;;;;;21.95;100.00;99731.41;5216229;28;20025;-73
2023/07/29 09:59:19;;;;;;;2.45;0.70;;;;;;;22.10;100.00;99729.94;5208882;28;20035;-76
2023/07/29 10:01:50;;;;;;;0.95;0.70;;;;;;;22.05;100.00;99718.91;5213901;28;20016;-74
2023/07/29 10:04:21;;;;;;;2.28;0.80;;;;;;;21.86;100.00;99716.31;5208556;28;20028;-76
2023/07/29 10:06:52;;;;;;;1.63;0.93;;;;;;;22.18;100.00;99722.06;5213248;28;20303;-76
2023/07/29 10:09:23;;;;;;;3.08;1.00;;;;;;;22.30;100.00;99724.38;5212798;28;20421;-76
2023/07/29 10:11:54;;;;;;;1.88;1.08;;;;;;;22.37;100.00;99728.13;5209264;28;20086;-76
2023/07/29 10:14:29;;;;;;;1.98;1.15;;;;;;;22.59;100.00;99729.56;5209896;28;20541;-76
2023/07/29 10:17:01;;;;;;;1.77;1.08;;;;;;;22.84;100.00;99727.00;5210694;28;20025;-76
2023/07/29 10:19:31;;;;;;;2.95;0.98;;;;;;;22.88;100.00;99726.50;5208573;28;20129;-76
2023/07/29 10:22:03;;;;;;;2.13;1.02;;;;;;;23.76;100.00;99732.56;5210297;28;20076;-76
2023/07/29 10:24:34;;;;;;;1.40;0.80;;;;;;;23.86;100.00;99732.50;5208679;28;20048;-76
2023/07/29 10:27:06;;;;;;;1.73;0.80;;;;;;;24.20;100.00;99734.16;5210567;28;20097;-76
2023/07/29 10:29:41;;;;;;;1.38;0.80;;;;;;;24.03;100.00;99737.75;5208703;28;20037;-76
2023/07/29 10:32:12;;;;;;;1.97;0.80;;;;;;;24.04;100.00;99731.41;5217050;28;20021;-76
2023/07/29 10:34:42;;;;;;;1.27;0.73;;;;;;;23.95;100.00;99735.06;5212349;28;20034;-76
2023/07/29 10:37:13;;;;;;;1.65;0.80;;;;;;;24.50;100.00;99733.59;5212680;28;20107;-73
2023/07/29 10:39:53;;;;;;;1.63;0.73;;;;;;;24.09;100.00;99723.78;5208561;28;20045;-74
2023/07/29 10:42:23;;;;;;;1.20;0.70;;;;;;;24.09;100.00;99731.78;5213172;28;20025;-76
2023/07/29 10:44:53;;;;;;;1.30;1.00;;;;;;;24.33;100.00;99726.53;5210815;28;20044;-76
2023/07/29 10:47:26;;;;;;;1.83;0.73;;;;;;;24.06;100.00;99724.06;5211099;28;20037;-74
2023/07/29 10:49:59;;;;;;;1.92;0.80;;;;;;;23.95;100.00;99721.69;5201676;28;20037;-76
2023/07/29 10:52:36;;;;;;;1.45;1.02;;;;;;;23.88;100.00;99720.66;5209730;28;20054;-76
2023/07/29 10:55:27;;;;;;;2.00;1.08;;;;;;;23.97;100.00;99719.69;5207833;28;20044;-76
2023/07/29 10:58:05;;;;;;;1.92;1.13;;;;;;;23.73;100.00;99708.03;5208664;28;20075;-76
2023/07/29 11:00:35;;;;;;;1.95;1.30;;;;;;;23.90;100.00;99707.16;5209603;28;20079;-76
2023/07/29 11:03:06;;;;;;;2.83;1.45;;;;;;;24.32;100.00;99708.81;5207636;28;20479;-76
2023/07/29 11:05:45;;;;;;;1.60;1.30;;;;;;;24.85;100.00;99698.59;5209547;28;20068;-76
2023/07/29 11:08:21;;;;;;;1.80;1.30;;;;;;;24.90;100.00;99697.13;5205281;28;20360;-76
2023/07/29 11:11:06;;;;;;;1.90;1.40;;;;;;;25.13;100.00;99683.91;5208574;28;20116;-75
2023/07/29 11:13:37;;;;;;;3.05;1.60;;;;;;;25.08;100.00;99686.25;5209412;28;20026;-76
2023/07/29 11:16:10;;;;;;;1.55;1.30;;;;;;;25.08;100.00;99687.09;5206696;28;20073;-76
2023/07/29 11:18:42;;;;;;;2.75;1.50;;;;;;;25.30;100.00;99675.72;5209661;28;20075;-76
2023/07/29 11:21:13;;;;;;;2.45;1.65;;;;;;;25.09;100.00;99672.72;5206597;28;20039;-76
2023/07/29 11:23:44;;;;;;;2.40;1.75;;;;;;;25.05;100.00;99678.56;5205809;28;20383;-73
2023/07/29 11:26:15;;;;;;;2.70;1.67;;;;;;;25.33;100.00;99674.56;5205951;28;20040;-76
2023/07/29 11:28:46;;;;;;;2.90;2.07;;;;;;;25.40;100.00;99678.22;5206409;28;20029;-74
2023/07/29 11:31:17;;;;;;;4.50;2.40;;;;;;;25.42;100.00;99676.19;5205414;28;20300;-76
2023/07/29 11:33:47;;;;;;;3.95;2.47;;;;;;;25.42;100.00;99684.22;5204414;28;20475;-73
2023/07/29 11:36:19;;;;;;;3.58;2.42;;;;;;;25.37;100.00;99691.94;5208665;28;20086;-76
2023/07/29 11:38:49;;;;;;;2.88;2.30;;;;;;;24.89;99.86;99686.56;5204504;28;20032;-74
2023/07/29 11:41:21;;;;;;;3.90;2.77;;;;;;;24.56;100.00;99681.38;5207913;28;20025;-76
2023/07/29 11:43:51;;;;;;;4.88;3.10;;;;;;;24.40;100.00;99700.81;5206951;28;20279;-74
2023/07/29 11:46:22;;;;;;;4.17;2.90;;;;;;;24.11;100.00;99703.09;5210519;28;20582;-76